Cornett, Texas
Current Conditions -  °F | °C
As of 6:35 PM on Monday 24 Nov 2014 (Local Time) from KOSA Reporting Station
Clear Clear  
Wind Chill: 52°   Ceiling: Unl
Heat Index: 52°   Visibility: 10mi
Dew Point: 25°   Wind: 0mph
Humidity: 35%   Direction: NA
Pressure: 30.08"   Gusts: NA
Location:  33.2006°N, 94.6977°W
Report Text: KOSA 250035Z AUTO 00000KT 10SM CLR 11/M04 A3008 RMK AO1 T01111039
Loading
Personal Weather Stations






























Interactive Weather Map New forecast layout! Learn more

10-Day Weather Forecast

Advertisements
Track Severe Weather on mobile